Terminal Aerodrome Forecast
Issued by NWS

Home | Current Version | Previous Version | Graphics & Text | Print | Product List | Glossary On
Versions: 1 2 3 4 5 6 7 8 9 10 11 12 13 14 15 16 17 18 19 20 21 22
041
FTUS43 KGRB 201045 AAA
TAFAUW
TAF AMD
KAUW 201045Z 2011/2106 10003KT 2SM -FZRAPL BR OVC003
     FM201500 10004KT 2SM -RA BR OVC003
     FM201800 11005KT 3SM BR SCT003 OVC010
     FM202100 10005KT 5SM BR SCT005 OVC008=

USA.gov is the U.S. government's official web portal to all federal, state and local government web resources and services.